sensor_id;sensor_type;location;lat;lon;timestamp;noise_LAeq;noise_LA_min;noise_LA_max;noise_LA01;noise_LA95
72736;Laerm;60856;53.238;10.448;2023-09-19T00:24:27;54.55;53.40;55.74;;
72736;Laerm;60856;53.238;10.448;2023-09-19T01:34:25;54.56;53.51;55.76;;
72736;Laerm;60856;53.238;10.448;2023-09-19T01:40:13;54.58;53.52;55.69;;
72736;Laerm;60856;53.238;10.448;2023-09-19T01:46:35;54.57;53.27;55.65;;
72736;Laerm;60856;53.238;10.448;2023-09-19T01:55:13;54.56;53.42;55.71;;
72736;Laerm;60856;53.238;10.448;2023-09-19T03:02:42;54.56;53.59;55.79;;
72736;Laerm;60856;53.238;10.448;2023-09-19T03:57:39;54.49;53.50;55.98;;
72736;Laerm;60856;53.238;10.448;2023-09-19T04:00:06;54.49;53.47;55.72;;
72736;Laerm;60856;53.238;10.448;2023-09-19T04:02:36;54.49;53.40;55.56;;
72736;Laerm;60856;53.238;10.448;2023-09-19T04:05:02;54.47;53.39;55.66;;
72736;Laerm;60856;53.238;10.448;2023-09-19T04:13:22;54.48;53.51;55.69;;
72736;Laerm;60856;53.238;10.448;2023-09-19T05:03:14;54.46;53.38;55.60;;
72736;Laerm;60856;53.238;10.448;2023-09-19T05:05:39;54.47;53.57;55.79;;
72736;Laerm;60856;53.238;10.448;2023-09-19T05:08:05;54.48;53.42;55.67;;
72736;Laerm;60856;53.238;10.448;2023-09-19T05:10:32;54.53;53.41;55.76;;
72736;Laerm;60856;53.238;10.448;2023-09-19T05:12:57;54.57;53.32;55.73;;
72736;Laerm;60856;53.238;10.448;2023-09-19T05:15:22;54.59;53.58;55.71;;
72736;Laerm;60856;53.238;10.448;2023-09-19T05:17:51;54.62;53.56;55.92;;
72736;Laerm;60856;53.238;10.448;2023-09-19T05:20:16;54.69;53.71;56.00;;
72736;Laerm;60856;53.238;10.448;2023-09-19T05:22:43;54.74;53.66;56.02;;
72736;Laerm;60856;53.238;10.448;2023-09-19T05:25:11;54.66;53.71;55.76;;
72736;Laerm;60856;53.238;10.448;2023-09-19T05:27:40;54.70;53.74;55.76;;
72736;Laerm;60856;53.238;10.448;2023-09-19T05:30:05;54.92;53.89;56.27;;
72736;Laerm;60856;53.238;10.448;2023-09-19T05:32:32;55.01;54.04;55.96;;
72736;Laerm;60856;53.238;10.448;2023-09-19T05:34:57;54.96;53.78;56.06;;
72736;Laerm;60856;53.238;10.448;2023-09-19T05:37:22;54.74;53.36;56.07;;
72736;Laerm;60856;53.238;10.448;2023-09-19T05:39:48;54.67;53.48;55.69;;
72736;Laerm;60856;53.238;10.448;2023-09-19T05:42:13;54.67;53.63;56.16;;
72736;Laerm;60856;53.238;10.448;2023-09-19T05:44:39;54.64;53.32;55.78;;
72736;Laerm;60856;53.238;10.448;2023-09-19T05:47:04;54.64;53.71;55.81;;
72736;Laerm;60856;53.238;10.448;2023-09-19T05:49:29;54.65;53.54;55.81;;
72736;Laerm;60856;53.238;10.448;2023-09-19T05:51:54;54.72;53.58;55.63;;
72736;Laerm;60856;53.238;10.448;2023-09-19T05:54:21;54.82;53.72;55.79;;
72736;Laerm;60856;53.238;10.448;2023-09-19T05:56:47;55.03;53.67;56.00;;
72736;Laerm;60856;53.238;10.448;2023-09-19T05:59:12;55.36;54.10;56.76;;
72736;Laerm;60856;53.238;10.448;2023-09-19T06:01:40;56.32;54.99;57.65;;
72736;Laerm;60856;53.238;10.448;2023-09-19T06:04:05;57.11;55.78;58.31;;
72736;Laerm;60856;53.238;10.448;2023-09-19T06:06:31;57.20;54.08;58.44;;
72736;Laerm;60856;53.238;10.448;2023-09-19T06:08:56;57.13;54.55;58.35;;
72736;Laerm;60856;53.238;10.448;2023-09-19T06:11:22;57.18;54.10;58.51;;
72736;Laerm;60856;53.238;10.448;2023-09-19T06:13:50;57.24;55.05;58.38;;
72736;Laerm;60856;53.238;10.448;2023-09-19T06:16:18;57.36;54.25;58.52;;
72736;Laerm;60856;53.238;10.448;2023-09-19T06:18:44;57.29;36.11;60.77;;
72736;Laerm;60856;53.238;10.448;2023-09-19T06:21:10;57.72;54.27;58.91;;
72736;Laerm;60856;53.238;10.448;2023-09-19T06:23:36;57.92;54.95;58.80;;
72736;Laerm;60856;53.238;10.448;2023-09-19T06:26:01;58.00;56.98;58.89;;
72736;Laerm;60856;53.238;10.448;2023-09-19T06:28:26;57.97;56.36;58.99;;
72736;Laerm;60856;53.238;10.448;2023-09-19T06:30:53;57.80;54.64;58.83;;
72736;Laerm;60856;53.238;10.448;2023-09-19T06:33:18;57.81;54.43;58.89;;
72736;Laerm;60856;53.238;10.448;2023-09-19T06:35:45;57.74;56.69;58.70;;
72736;Laerm;60856;53.238;10.448;2023-09-19T06:38:11;57.46;54.35;58.72;;
72736;Laerm;60856;53.238;10.448;2023-09-19T06:40:38;57.18;56.17;58.50;;
72736;Laerm;60856;53.238;10.448;2023-09-19T06:43:03;57.65;56.15;58.73;;
72736;Laerm;60856;53.238;10.448;2023-09-19T06:45:29;57.09;55.63;58.15;;
72736;Laerm;60856;53.238;10.448;2023-09-19T06:47:56;56.78;55.73;57.82;;
72736;Laerm;60856;53.238;10.448;2023-09-19T06:50:22;56.63;55.46;57.91;;
72736;Laerm;60856;53.238;10.448;2023-09-19T06:52:52;56.60;55.14;57.74;;
72736;Laerm;60856;53.238;10.448;2023-09-19T06:55:18;56.71;55.19;57.82;;
72736;Laerm;60856;53.238;10.448;2023-09-19T06:57:45;56.54;55.58;57.61;;
72736;Laerm;60856;53.238;10.448;2023-09-19T07:00:11;56.68;55.41;57.77;;
72736;Laerm;60856;53.238;10.448;2023-09-19T07:02:59;56.76;55.56;57.85;;
72736;Laerm;60856;53.238;10.448;2023-09-19T07:05:29;56.66;55.57;57.80;;
72736;Laerm;60856;53.238;10.448;2023-09-19T07:07:56;56.72;55.60;57.95;;
72736;Laerm;60856;53.238;10.448;2023-09-19T07:10:21;56.48;55.32;57.75;;
72736;Laerm;60856;53.238;10.448;2023-09-19T07:12:54;56.20;55.20;57.44;;
72736;Laerm;60856;53.238;10.448;2023-09-19T07:15:19;56.17;55.07;57.27;;
72736;Laerm;60856;53.238;10.448;2023-09-19T07:17:45;56.18;55.18;57.36;;
72736;Laerm;60856;53.238;10.448;2023-09-19T07:20:10;56.41;55.28;57.47;;
72736;Laerm;60856;53.238;10.448;2023-09-19T07:22:38;56.22;55.18;57.14;;
72736;Laerm;60856;53.238;10.448;2023-09-19T07:25:04;56.07;55.10;57.26;;
72736;Laerm;60856;53.238;10.448;2023-09-19T07:27:29;56.05;55.09;57.04;;
72736;Laerm;60856;53.238;10.448;2023-09-19T07:29:54;56.03;55.03;57.12;;
72736;Laerm;60856;53.238;10.448;2023-09-19T07:32:20;55.96;54.58;57.01;;
72736;Laerm;60856;53.238;10.448;2023-09-19T07:34:45;55.97;55.01;56.97;;
72736;Laerm;60856;53.238;10.448;2023-09-19T07:37:10;55.98;54.95;57.02;;
72736;Laerm;60856;53.238;10.448;2023-09-19T07:39:38;55.94;54.95;56.88;;
72736;Laerm;60856;53.238;10.448;2023-09-19T07:42:05;56.09;55.16;57.24;;
72736;Laerm;60856;53.238;10.448;2023-09-19T07:44:32;56.07;55.01;57.16;;
72736;Laerm;60856;53.238;10.448;2023-09-19T07:46:57;56.29;55.09;57.45;;
72736;Laerm;60856;53.238;10.448;2023-09-19T07:49:22;56.39;55.14;57.49;;
72736;Laerm;60856;53.238;10.448;2023-09-19T07:51:48;56.49;55.36;57.75;;
72736;Laerm;60856;53.238;10.448;2023-09-19T07:54:13;56.31;55.26;57.35;;
72736;Laerm;60856;53.238;10.448;2023-09-19T07:56:39;56.50;55.28;57.55;;
72736;Laerm;60856;53.238;10.448;2023-09-19T07:59:04;56.56;55.47;57.71;;
72736;Laerm;60856;53.238;10.448;2023-09-19T08:01:30;56.41;55.29;57.41;;
72736;Laerm;60856;53.238;10.448;2023-09-19T08:03:55;56.25;55.17;57.44;;
72736;Laerm;60856;53.238;10.448;2023-09-19T08:06:20;55.99;54.75;57.03;;
72736;Laerm;60856;53.238;10.448;2023-09-19T08:08:45;55.90;54.93;56.86;;
72736;Laerm;60856;53.238;10.448;2023-09-19T08:11:10;55.99;54.85;56.97;;
72736;Laerm;60856;53.238;10.448;2023-09-19T08:13:39;56.01;54.94;56.94;;
72736;Laerm;60856;53.238;10.448;2023-09-19T08:16:14;56.34;55.20;57.83;;
72736;Laerm;60856;53.238;10.448;2023-09-19T08:18:40;56.58;55.49;57.47;;
72736;Laerm;60856;53.238;10.448;2023-09-19T08:21:06;56.62;55.53;57.58;;
72736;Laerm;60856;53.238;10.448;2023-09-19T08:23:36;56.42;55.38;57.61;;
72736;Laerm;60856;53.238;10.448;2023-09-19T08:26:01;56.40;55.30;57.42;;
72736;Laerm;60856;53.238;10.448;2023-09-19T08:28:32;56.42;55.28;57.49;;
72736;Laerm;60856;53.238;10.448;2023-09-19T08:31:05;56.44;55.44;57.47;;
72736;Laerm;60856;53.238;10.448;2023-09-19T08:33:34;56.37;55.36;57.42;;
72736;Laerm;60856;53.238;10.448;2023-09-19T08:36:00;56.44;55.38;57.42;;
72736;Laerm;60856;53.238;10.448;2023-09-19T08:38:25;56.49;55.47;57.76;;
72736;Laerm;60856;53.238;10.448;2023-09-19T08:40:56;56.47;55.44;57.61;;
72736;Laerm;60856;53.238;10.448;2023-09-19T08:43:22;56.32;55.01;57.39;;
72736;Laerm;60856;53.238;10.448;2023-09-19T08:45:47;56.20;55.22;57.35;;
72736;Laerm;60856;53.238;10.448;2023-09-19T08:48:23;56.21;55.19;57.30;;
72736;Laerm;60856;53.238;10.448;2023-09-19T08:50:49;56.12;55.14;57.19;;
72736;Laerm;60856;53.238;10.448;2023-09-19T08:53:20;56.24;55.11;57.24;;
72736;Laerm;60856;53.238;10.448;2023-09-19T08:55:48;56.13;55.08;57.15;;
72736;Laerm;60856;53.238;10.448;2023-09-19T08:58:16;56.17;55.06;57.43;;
72736;Laerm;60856;53.238;10.448;2023-09-19T09:00:44;56.13;55.00;57.27;;
72736;Laerm;60856;53.238;10.448;2023-09-19T09:03:11;56.39;55.36;57.51;;
72736;Laerm;60856;53.238;10.448;2023-09-19T09:05:38;56.50;55.44;57.51;;
72736;Laerm;60856;53.238;10.448;2023-09-19T09:08:07;56.47;55.28;57.59;;
72736;Laerm;60856;53.238;10.448;2023-09-19T09:10:32;56.55;55.46;57.49;;
72736;Laerm;60856;53.238;10.448;2023-09-19T09:12:57;56.54;55.51;57.47;;
72736;Laerm;60856;53.238;10.448;2023-09-19T09:15:24;56.63;55.56;57.88;;
72736;Laerm;60856;53.238;10.448;2023-09-19T09:17:50;56.54;55.47;57.50;;
72736;Laerm;60856;53.238;10.448;2023-09-19T09:20:16;56.62;55.61;57.73;;
72736;Laerm;60856;53.238;10.448;2023-09-19T09:22:54;56.61;55.55;57.56;;
72736;Laerm;60856;53.238;10.448;2023-09-19T09:25:19;56.61;55.54;57.65;;
72736;Laerm;60856;53.238;10.448;2023-09-19T09:27:57;56.55;55.59;57.65;;
72736;Laerm;60856;53.238;10.448;2023-09-19T09:30:34;56.58;55.64;57.72;;
72736;Laerm;60856;53.238;10.448;2023-09-19T09:33:12;56.52;55.49;57.59;;
72736;Laerm;60856;53.238;10.448;2023-09-19T09:35:47;56.56;55.43;57.60;;
72736;Laerm;60856;53.238;10.448;2023-09-19T09:38:16;56.56;55.64;57.56;;
72736;Laerm;60856;53.238;10.448;2023-09-19T09:40:47;56.51;55.44;57.49;;
72736;Laerm;60856;53.238;10.448;2023-09-19T09:51:39;56.35;55.29;57.32;;
72736;Laerm;60856;53.238;10.448;2023-09-19T09:54:13;56.31;55.13;57.33;;
72736;Laerm;60856;53.238;10.448;2023-09-19T09:56:56;56.26;55.31;57.23;;
72736;Laerm;60856;53.238;10.448;2023-09-19T10:02:08;56.42;55.37;57.40;;
72736;Laerm;60856;53.238;10.448;2023-09-19T10:04:34;56.35;55.37;57.27;;
72736;Laerm;60856;53.238;10.448;2023-09-19T10:07:01;56.41;55.29;57.44;;
72736;Laerm;60856;53.238;10.448;2023-09-19T10:09:44;56.31;55.30;57.34;;
72736;Laerm;60856;53.238;10.448;2023-09-19T10:12:09;56.35;55.39;57.44;;
72736;Laerm;60856;53.238;10.448;2023-09-19T10:14:37;56.32;55.40;57.55;;
72736;Laerm;60856;53.238;10.448;2023-09-19T10:17:04;56.36;55.27;57.42;;
72736;Laerm;60856;53.238;10.448;2023-09-19T10:19:30;56.41;55.31;57.43;;
72736;Laerm;60856;53.238;10.448;2023-09-19T10:22:01;56.19;55.20;57.38;;
72736;Laerm;60856;53.238;10.448;2023-09-19T10:24:26;56.35;55.26;57.35;;
72736;Laerm;60856;53.238;10.448;2023-09-19T10:26:53;56.36;55.39;57.41;;
72736;Laerm;60856;53.238;10.448;2023-09-19T10:29:19;56.36;55.43;57.24;;
72736;Laerm;60856;53.238;10.448;2023-09-19T10:31:47;56.36;55.25;57.53;;
72736;Laerm;60856;53.238;10.448;2023-09-19T10:34:12;56.31;55.06;57.37;;
72736;Laerm;60856;53.238;10.448;2023-09-19T10:36:39;56.24;55.23;57.17;;
72736;Laerm;60856;53.238;10.448;2023-09-19T10:39:09;56.23;55.18;57.19;;
72736;Laerm;60856;53.238;10.448;2023-09-19T10:41:37;56.24;55.21;57.28;;
72736;Laerm;60856;53.238;10.448;2023-09-19T10:44:03;56.23;55.12;57.16;;
72736;Laerm;60856;53.238;10.448;2023-09-19T10:46:34;56.25;55.18;57.17;;
72736;Laerm;60856;53.238;10.448;2023-09-19T10:49:00;56.18;55.15;57.30;;
72736;Laerm;60856;53.238;10.448;2023-09-19T10:51:25;56.12;55.15;57.10;;
72736;Laerm;60856;53.238;10.448;2023-09-19T10:53:59;56.22;55.18;57.14;;
72736;Laerm;60856;53.238;10.448;2023-09-19T10:56:30;56.25;55.12;57.21;;
72736;Laerm;60856;53.238;10.448;2023-09-19T10:59:10;56.31;55.26;57.24;;
72736;Laerm;60856;53.238;10.448;2023-09-19T11:01:42;56.27;55.21;57.58;;
72736;Laerm;60856;53.238;10.448;2023-09-19T11:04:28;56.38;55.40;57.35;;
72736;Laerm;60856;53.238;10.448;2023-09-19T11:07:20;56.36;55.23;57.41;;
72736;Laerm;60856;53.238;10.448;2023-09-19T11:09:51;56.30;55.33;57.44;;
72736;Laerm;60856;53.238;10.448;2023-09-19T11:14:54;56.22;55.19;57.23;;
72736;Laerm;60856;53.238;10.448;2023-09-19T11:30:32;56.11;55.00;57.08;;
72736;Laerm;60856;53.238;10.448;2023-09-19T11:36:08;56.12;55.12;57.24;;
72736;Laerm;60856;53.238;10.448;2023-09-19T11:43:45;56.20;54.93;57.31;;
72736;Laerm;60856;53.238;10.448;2023-09-19T11:46:11;56.21;55.14;57.23;;
72736;Laerm;60856;53.238;10.448;2023-09-19T11:48:37;56.23;55.30;57.36;;
72736;Laerm;60856;53.238;10.448;2023-09-19T11:51:09;56.28;55.31;57.25;;
72736;Laerm;60856;53.238;10.448;2023-09-19T11:53:40;56.32;55.23;57.31;;
72736;Laerm;60856;53.238;10.448;2023-09-19T11:56:06;56.34;55.34;57.29;;
72736;Laerm;60856;53.238;10.448;2023-09-19T11:58:32;56.32;55.12;57.28;;
72736;Laerm;60856;53.238;10.448;2023-09-19T12:00:58;56.34;55.23;57.30;;
72736;Laerm;60856;53.238;10.448;2023-09-19T12:03:27;56.29;55.25;57.25;;
72736;Laerm;60856;53.238;10.448;2023-09-19T12:05:54;56.20;55.09;57.13;;
72736;Laerm;60856;53.238;10.448;2023-09-19T12:08:20;56.27;55.22;57.32;;
72736;Laerm;60856;53.238;10.448;2023-09-19T12:10:49;56.26;55.30;57.21;;
72736;Laerm;60856;53.238;10.448;2023-09-19T12:13:19;56.22;55.14;57.27;;
72736;Laerm;60856;53.238;10.448;2023-09-19T12:15:44;56.25;55.30;57.37;;
72736;Laerm;60856;53.238;10.448;2023-09-19T12:18:31;56.20;55.08;57.15;;
72736;Laerm;60856;53.238;10.448;2023-09-19T12:20:56;56.16;55.15;57.29;;
72736;Laerm;60856;53.238;10.448;2023-09-19T12:23:23;56.10;54.95;56.99;;
72736;Laerm;60856;53.238;10.448;2023-09-19T12:25:48;56.16;55.13;57.53;;
72736;Laerm;60856;53.238;10.448;2023-09-19T12:28:17;56.14;55.22;57.42;;
72736;Laerm;60856;53.238;10.448;2023-09-19T12:30:42;56.09;55.12;57.26;;
72736;Laerm;60856;53.238;10.448;2023-09-19T12:33:17;56.13;54.99;57.07;;
72736;Laerm;60856;53.238;10.448;2023-09-19T12:35:49;56.12;55.00;57.13;;
72736;Laerm;60856;53.238;10.448;2023-09-19T12:38:26;56.06;55.08;57.16;;
72736;Laerm;60856;53.238;10.448;2023-09-19T12:40:57;56.02;54.81;57.03;;
72736;Laerm;60856;53.238;10.448;2023-09-19T12:43:28;56.08;55.16;57.07;;
72736;Laerm;60856;53.238;10.448;2023-09-19T12:45:57;56.12;55.12;57.20;;
72736;Laerm;60856;53.238;10.448;2023-09-19T12:48:25;56.13;55.10;57.09;;
72736;Laerm;60856;53.238;10.448;2023-09-19T12:50:59;55.92;54.88;57.03;;
72736;Laerm;60856;53.238;10.448;2023-09-19T12:53:25;56.01;55.08;57.14;;
72736;Laerm;60856;53.238;10.448;2023-09-19T12:55:57;55.94;54.92;56.88;;
72736;Laerm;60856;53.238;10.448;2023-09-19T12:58:23;55.97;54.95;56.86;;
72736;Laerm;60856;53.238;10.448;2023-09-19T13:00:48;55.98;54.96;57.08;;
72736;Laerm;60856;53.238;10.448;2023-09-19T13:03:28;56.03;54.96;57.04;;
72736;Laerm;60856;53.238;10.448;2023-09-19T13:06:01;56.04;54.95;57.09;;
72736;Laerm;60856;53.238;10.448;2023-09-19T13:08:31;56.03;55.10;57.18;;
72736;Laerm;60856;53.238;10.448;2023-09-19T13:11:00;55.97;54.61;57.11;;
72736;Laerm;60856;53.238;10.448;2023-09-19T13:13:25;56.14;55.09;57.28;;
72736;Laerm;60856;53.238;10.448;2023-09-19T13:15:52;56.03;54.84;57.16;;
72736;Laerm;60856;53.238;10.448;2023-09-19T13:18:18;55.89;55.03;57.03;;
72736;Laerm;60856;53.238;10.448;2023-09-19T13:20:53;55.99;54.74;56.99;;
72736;Laerm;60856;53.238;10.448;2023-09-19T13:23:30;55.94;54.89;57.06;;
72736;Laerm;60856;53.238;10.448;2023-09-19T13:25:56;55.84;54.79;57.02;;
72736;Laerm;60856;53.238;10.448;2023-09-19T13:28:21;55.97;54.76;56.98;;
72736;Laerm;60856;53.238;10.448;2023-09-19T13:30:46;55.98;54.90;57.18;;
72736;Laerm;60856;53.238;10.448;2023-09-19T13:33:13;55.77;54.85;56.75;;
72736;Laerm;60856;53.238;10.448;2023-09-19T13:35:44;55.76;54.73;57.20;;
72736;Laerm;60856;53.238;10.448;2023-09-19T13:38:09;55.62;54.53;56.79;;
72736;Laerm;60856;53.238;10.448;2023-09-19T13:40:36;55.83;54.81;56.89;;
72736;Laerm;60856;53.238;10.448;2023-09-19T13:43:06;55.89;54.86;57.01;;
72736;Laerm;60856;53.238;10.448;2023-09-19T13:45:31;55.75;54.66;56.82;;
72736;Laerm;60856;53.238;10.448;2023-09-19T13:47:57;55.76;54.74;56.91;;
72736;Laerm;60856;53.238;10.448;2023-09-19T13:50:24;55.70;54.69;56.76;;
72736;Laerm;60856;53.238;10.448;2023-09-19T13:52:50;55.68;54.51;56.81;;
72736;Laerm;60856;53.238;10.448;2023-09-19T13:55:19;55.58;54.66;56.56;;
72736;Laerm;60856;53.238;10.448;2023-09-19T13:57:47;55.67;54.50;56.78;;
72736;Laerm;60856;53.238;10.448;2023-09-19T14:00:15;55.71;54.63;56.74;;
72736;Laerm;60856;53.238;10.448;2023-09-19T14:02:41;55.56;54.49;56.80;;
72736;Laerm;60856;53.238;10.448;2023-09-19T14:05:08;55.55;54.46;56.61;;
72736;Laerm;60856;53.238;10.448;2023-09-19T14:07:33;55.56;54.32;56.65;;
72736;Laerm;60856;53.238;10.448;2023-09-19T14:09:58;55.57;54.56;56.75;;
72736;Laerm;60856;53.238;10.448;2023-09-19T14:12:25;55.45;54.40;56.40;;
72736;Laerm;60856;53.238;10.448;2023-09-19T14:14:51;55.52;54.43;56.65;;
72736;Laerm;60856;53.238;10.448;2023-09-19T14:17:16;55.54;54.23;56.63;;
72736;Laerm;60856;53.238;10.448;2023-09-19T14:19:43;55.39;54.30;56.50;;
72736;Laerm;60856;53.238;10.448;2023-09-19T14:22:09;55.41;54.41;56.72;;
72736;Laerm;60856;53.238;10.448;2023-09-19T14:24:35;55.47;54.32;56.60;;
72736;Laerm;60856;53.238;10.448;2023-09-19T14:27:00;55.37;54.28;56.40;;
72736;Laerm;60856;53.238;10.448;2023-09-19T14:29:25;55.21;54.11;56.22;;
72736;Laerm;60856;53.238;10.448;2023-09-19T14:31:50;55.24;54.13;56.26;;
72736;Laerm;60856;53.238;10.448;2023-09-19T14:34:17;55.31;53.94;56.51;;
72736;Laerm;60856;53.238;10.448;2023-09-19T14:36:42;55.49;54.35;56.52;;
72736;Laerm;60856;53.238;10.448;2023-09-19T14:39:07;55.39;54.26;56.49;;
72736;Laerm;60856;53.238;10.448;2023-09-19T14:41:33;55.29;54.19;56.61;;
72736;Laerm;60856;53.238;10.448;2023-09-19T14:43:58;55.27;54.03;56.46;;
72736;Laerm;60856;53.238;10.448;2023-09-19T14:46:24;55.31;54.32;56.62;;
72736;Laerm;60856;53.238;10.448;2023-09-19T14:48:53;55.40;54.26;56.62;;
72736;Laerm;60856;53.238;10.448;2023-09-19T14:51:18;55.41;54.45;56.51;;
72736;Laerm;60856;53.238;10.448;2023-09-19T14:53:44;55.45;54.41;56.66;;
72736;Laerm;60856;53.238;10.448;2023-09-19T14:56:10;55.25;54.22;56.33;;
72736;Laerm;60856;53.238;10.448;2023-09-19T14:58:36;55.17;54.15;56.25;;
72736;Laerm;60856;53.238;10.448;2023-09-19T15:01:05;55.18;54.15;56.54;;
72736;Laerm;60856;53.238;10.448;2023-09-19T15:03:31;55.14;54.05;56.33;;
72736;Laerm;60856;53.238;10.448;2023-09-19T15:06:00;55.15;53.95;56.23;;
72736;Laerm;60856;53.238;10.448;2023-09-19T15:08:25;55.18;54.17;56.27;;
72736;Laerm;60856;53.238;10.448;2023-09-19T15:10:50;55.21;54.23;56.22;;
72736;Laerm;60856;53.238;10.448;2023-09-19T15:13:18;55.28;54.23;56.49;;
72736;Laerm;60856;53.238;10.448;2023-09-19T15:15:43;55.33;54.33;56.41;;
72736;Laerm;60856;53.238;10.448;2023-09-19T15:18:10;55.42;54.32;56.52;;
72736;Laerm;60856;53.238;10.448;2023-09-19T15:20:42;55.57;54.70;56.82;;
72736;Laerm;60856;53.238;10.448;2023-09-19T15:23:07;55.56;54.51;56.53;;
72736;Laerm;60856;53.238;10.448;2023-09-19T15:25:32;55.61;54.49;56.69;;
72736;Laerm;60856;53.238;10.448;2023-09-19T15:27:57;55.55;54.53;56.65;;
72736;Laerm;60856;53.238;10.448;2023-09-19T15:30:26;55.52;54.47;56.71;;
72736;Laerm;60856;53.238;10.448;2023-09-19T15:32:51;55.45;54.46;56.55;;
72736;Laerm;60856;53.238;10.448;2023-09-19T15:35:16;55.40;54.11;56.46;;
72736;Laerm;60856;53.238;10.448;2023-09-19T15:37:43;55.49;54.51;56.61;;
72736;Laerm;60856;53.238;10.448;2023-09-19T15:40:08;55.49;54.54;56.57;;
72736;Laerm;60856;53.238;10.448;2023-09-19T15:42:35;55.40;53.84;56.60;;
72736;Laerm;60856;53.238;10.448;2023-09-19T15:45:01;55.36;54.22;56.47;;
72736;Laerm;60856;53.238;10.448;2023-09-19T15:47:26;55.40;54.37;56.47;;
72736;Laerm;60856;53.238;10.448;2023-09-19T15:49:52;55.34;54.36;56.50;;
72736;Laerm;60856;53.238;10.448;2023-09-19T15:52:17;55.21;54.20;56.46;;
72736;Laerm;60856;53.238;10.448;2023-09-19T15:54:42;55.12;53.91;56.42;;
72736;Laerm;60856;53.238;10.448;2023-09-19T15:57:09;55.08;53.93;56.34;;
72736;Laerm;60856;53.238;10.448;2023-09-19T15:59:39;55.05;54.04;56.18;;
72736;Laerm;60856;53.238;10.448;2023-09-19T16:02:05;55.04;53.92;56.14;;
72736;Laerm;60856;53.238;10.448;2023-09-19T16:04:32;55.05;53.89;56.03;;
72736;Laerm;60856;53.238;10.448;2023-09-19T16:06:58;55.06;54.05;56.11;;
72736;Laerm;60856;53.238;10.448;2023-09-19T16:09:24;55.11;54.02;56.25;;
72736;Laerm;60856;53.238;10.448;2023-09-19T16:11:49;55.16;54.12;56.16;;
72736;Laerm;60856;53.238;10.448;2023-09-19T16:14:14;55.19;54.10;56.41;;
72736;Laerm;60856;53.238;10.448;2023-09-19T16:16:40;55.12;53.85;56.18;;
72736;Laerm;60856;53.238;10.448;2023-09-19T16:19:05;55.00;54.05;56.04;;
72736;Laerm;60856;53.238;10.448;2023-09-19T16:21:36;54.92;53.87;56.01;;
72736;Laerm;60856;53.238;10.448;2023-09-19T16:24:02;54.87;53.84;55.99;;
72736;Laerm;60856;53.238;10.448;2023-09-19T16:26:28;54.84;53.72;55.93;;
72736;Laerm;60856;53.238;10.448;2023-09-19T16:28:57;54.85;53.66;56.24;;
72736;Laerm;60856;53.238;10.448;2023-09-19T16:31:25;54.89;53.86;55.98;;
72736;Laerm;60856;53.238;10.448;2023-09-19T16:33:51;54.90;53.81;56.06;;
72736;Laerm;60856;53.238;10.448;2023-09-19T16:36:17;54.90;53.76;56.09;;
72736;Laerm;60856;53.238;10.448;2023-09-19T16:38:43;54.87;53.65;55.95;;
72736;Laerm;60856;53.238;10.448;2023-09-19T16:41:09;54.86;53.91;55.86;;
72736;Laerm;60856;53.238;10.448;2023-09-19T16:43:36;54.86;53.80;56.14;;
72736;Laerm;60856;53.238;10.448;2023-09-19T16:46:03;54.85;53.81;55.92;;
72736;Laerm;60856;53.238;10.448;2023-09-19T16:48:29;54.83;53.62;55.92;;
72736;Laerm;60856;53.238;10.448;2023-09-19T16:50:54;54.82;53.67;55.91;;
72736;Laerm;60856;53.238;10.448;2023-09-19T16:53:24;54.81;53.65;55.87;;
72736;Laerm;60856;53.238;10.448;2023-09-19T16:55:49;54.81;53.77;55.94;;
72736;Laerm;60856;53.238;10.448;2023-09-19T16:58:15;54.80;53.91;55.83;;
72736;Laerm;60856;53.238;10.448;2023-09-19T17:00:40;54.80;53.66;56.01;;
72736;Laerm;60856;53.238;10.448;2023-09-19T17:03:05;54.79;53.68;55.89;;
72736;Laerm;60856;53.238;10.448;2023-09-19T17:05:31;54.79;53.83;55.99;;
72736;Laerm;60856;53.238;10.448;2023-09-19T17:07:57;54.78;53.88;55.86;;
72736;Laerm;60856;53.238;10.448;2023-09-19T17:10:24;54.77;53.79;56.28;;
72736;Laerm;60856;53.238;10.448;2023-09-19T17:12:49;54.78;53.52;56.10;;
72736;Laerm;60856;53.238;10.448;2023-09-19T17:15:14;54.78;53.72;55.82;;
72736;Laerm;60856;53.238;10.448;2023-09-19T17:17:39;54.77;53.81;56.00;;
72736;Laerm;60856;53.238;10.448;2023-09-19T17:20:06;54.77;53.53;56.10;;
72736;Laerm;60856;53.238;10.448;2023-09-19T17:22:31;54.76;53.74;55.76;;
72736;Laerm;60856;53.238;10.448;2023-09-19T17:24:57;54.76;53.63;56.00;;
72736;Laerm;60856;53.238;10.448;2023-09-19T17:27:22;54.76;53.53;55.88;;
72736;Laerm;60856;53.238;10.448;2023-09-19T17:29:48;54.74;53.73;55.86;;
72736;Laerm;60856;53.238;10.448;2023-09-19T17:32:14;54.76;53.73;56.06;;
72736;Laerm;60856;53.238;10.448;2023-09-19T17:34:39;54.76;53.74;56.14;;
72736;Laerm;60856;53.238;10.448;2023-09-19T17:37:04;54.75;53.70;55.95;;
72736;Laerm;60856;53.238;10.448;2023-09-19T17:39:30;54.75;53.43;55.92;;
72736;Laerm;60856;53.238;10.448;2023-09-19T17:41:56;54.75;53.67;55.91;;
72736;Laerm;60856;53.238;10.448;2023-09-19T17:44:23;54.74;53.61;55.92;;
72736;Laerm;60856;53.238;10.448;2023-09-19T17:46:49;54.74;53.73;56.11;;
72736;Laerm;60856;53.238;10.448;2023-09-19T17:49:14;54.74;53.49;55.97;;
72736;Laerm;60856;53.238;10.448;2023-09-19T17:51:39;54.73;53.75;55.93;;
72736;Laerm;60856;53.238;10.448;2023-09-19T17:54:04;54.74;53.38;55.87;;
72736;Laerm;60856;53.238;10.448;2023-09-19T17:56:30;54.74;53.67;55.88;;
72736;Laerm;60856;53.238;10.448;2023-09-19T17:58:55;54.74;53.74;55.92;;
72736;Laerm;60856;53.238;10.448;2023-09-19T18:01:21;54.73;53.61;55.92;;
72736;Laerm;60856;53.238;10.448;2023-09-19T18:03:52;54.73;53.54;55.94;;
72736;Laerm;60856;53.238;10.448;2023-09-19T18:06:21;54.72;53.21;55.86;;
72736;Laerm;60856;53.238;10.448;2023-09-19T18:08:46;54.73;53.71;55.80;;
72736;Laerm;60856;53.238;10.448;2023-09-19T18:11:13;54.73;53.63;55.73;;
72736;Laerm;60856;53.238;10.448;2023-09-19T18:13:43;54.72;53.60;55.82;;
72736;Laerm;60856;53.238;10.448;2023-09-19T18:16:08;54.73;53.74;55.84;;
72736;Laerm;60856;53.238;10.448;2023-09-19T18:18:34;54.73;53.70;55.90;;
72736;Laerm;60856;53.238;10.448;2023-09-19T18:21:00;54.73;53.66;56.01;;
72736;Laerm;60856;53.238;10.448;2023-09-19T18:23:25;54.73;53.74;55.91;;
72736;Laerm;60856;53.238;10.448;2023-09-19T18:25:50;54.73;53.68;56.34;;
72736;Laerm;60856;53.238;10.448;2023-09-19T18:28:20;54.74;53.72;55.85;;
72736;Laerm;60856;53.238;10.448;2023-09-19T18:30:45;54.73;53.53;56.02;;
72736;Laerm;60856;53.238;10.448;2023-09-19T18:33:12;54.73;53.67;55.96;;
72736;Laerm;60856;53.238;10.448;2023-09-19T18:35:37;54.73;53.68;55.95;;
72736;Laerm;60856;53.238;10.448;2023-09-19T18:38:02;54.74;53.47;56.02;;
72736;Laerm;60856;53.238;10.448;2023-09-19T18:40:28;54.73;53.72;56.02;;
72736;Laerm;60856;53.238;10.448;2023-09-19T18:42:54;54.72;53.62;55.77;;